Time;durP1;ratioP1;P1;durP2;ratioP2;P2;SDS_P1;SDS_P2;PMS_P1;PMS_P2;Temp;Humidity;BMP_temperature;BMP_pressure;BME280_temperature;BME280_humidity;BME280_pressure;Samples;Min_cycle;Max_cycle;Signal;HPM_P1;HPM_P2
2022/03/09 00:02:07;;;;;;;5.43;3.30;;;3.10;99.90;;;;;;4988980;28;20040;-84
2022/03/09 00:04:33;;;;;;;6.25;3.38;;;3.00;99.90;;;;;;4997371;28;20042;-84
2022/03/09 00:06:59;;;;;;;4.90;3.05;;;3.00;99.90;;;;;;4978639;28;20034;-84
2022/03/09 00:09:24;;;;;;;6.32;3.35;;;3.00;99.90;;;;;;4975995;28;20046;-84
2022/03/09 00:11:50;;;;;;;4.85;2.85;;;2.90;99.90;;;;;;4996807;28;20543;-84
2022/03/09 00:14:15;;;;;;;4.82;3.40;;;2.90;99.90;;;;;;5000516;28;20048;-84
2022/03/09 00:16:41;;;;;;;4.80;3.38;;;2.90;99.90;;;;;;4985295;28;20095;-84
2022/03/09 00:19:06;;;;;;;4.90;3.25;;;2.90;99.90;;;;;;5001963;28;20057;-84
2022/03/09 00:21:32;;;;;;;6.07;3.60;;;2.80;99.90;;;;;;4994406;28;20045;-84
2022/03/09 00:23:57;;;;;;;5.97;3.53;;;2.80;99.90;;;;;;4996550;28;20415;-84
2022/03/09 00:26:23;;;;;;;4.78;3.42;;;2.80;99.90;;;;;;4990307;28;20045;-84
2022/03/09 00:28:48;;;;;;;5.35;3.47;;;2.80;99.90;;;;;;4996476;28;20045;-84
2022/03/09 00:31:14;;;;;;;5.35;3.60;;;2.80;99.90;;;;;;4995071;28;20065;-83
2022/03/09 00:33:40;;;;;;;5.82;3.38;;;2.80;99.90;;;;;;4997474;28;20132;-83
2022/03/09 00:36:05;;;;;;;7.90;3.30;;;2.70;99.90;;;;;;4998665;28;20065;-83
2022/03/09 00:38:31;;;;;;;5.35;3.35;;;2.70;99.90;;;;;;5001993;28;20037;-84
2022/03/09 00:40:56;;;;;;;5.22;3.50;;;2.80;99.90;;;;;;4994022;28;20034;-84
2022/03/09 00:43:22;;;;;;;6.68;3.30;;;2.70;99.90;;;;;;4979835;28;20042;-83
2022/03/09 00:45:48;;;;;;;6.03;3.70;;;2.70;99.90;;;;;;4996163;28;20034;-83
2022/03/09 00:48:14;;;;;;;7.55;3.47;;;2.60;99.90;;;;;;4997522;28;20038;-83
2022/03/09 00:50:39;;;;;;;5.28;3.30;;;2.60;99.90;;;;;;5003255;28;20146;-84
2022/03/09 00:53:05;;;;;;;5.68;3.63;;;2.50;99.90;;;;;;4996375;28;20052;-84
2022/03/09 00:55:30;;;;;;;7.43;3.95;;;2.50;99.90;;;;;;4999737;28;20077;-84
2022/03/09 00:57:56;;;;;;;5.65;3.80;;;2.30;99.90;;;;;;5001911;28;20037;-82
2022/03/09 01:00:21;;;;;;;5.60;3.53;;;2.30;99.90;;;;;;5001056;28;20038;-84
2022/03/09 01:02:47;;;;;;;5.47;3.80;;;2.30;99.90;;;;;;4999092;28;20125;-83
2022/03/09 01:05:14;;;;;;;5.22;3.53;;;2.30;99.90;;;;;;5000029;28;20034;-84
2022/03/09 01:07:40;;;;;;;5.45;3.88;;;2.30;99.90;;;;;;5001548;28;20038;-83
2022/03/09 01:10:06;;;;;;;5.82;3.97;;;2.20;99.90;;;;;;4989776;28;20038;-84
2022/03/09 01:12:32;;;;;;;5.72;3.97;;;2.20;99.90;;;;;;4994018;28;20444;-84
2022/03/09 01:14:58;;;;;;;5.18;3.60;;;2.10;99.90;;;;;;5006362;28;20173;-83
2022/03/09 01:17:24;;;;;;;6.70;4.00;;;2.10;99.90;;;;;;4999729;28;20408;-83
2022/03/09 01:19:49;;;;;;;6.88;3.65;;;2.10;99.90;;;;;;4985368;28;20034;-83
2022/03/09 01:22:15;;;;;;;7.70;3.85;;;2.00;99.90;;;;;;4997744;28;20129;-83
2022/03/09 01:24:40;;;;;;;6.03;3.92;;;2.00;99.90;;;;;;5003706;28;20050;-83
2022/03/09 01:27:06;;;;;;;6.13;3.75;;;2.10;99.90;;;;;;5002840;28;20506;-83
2022/03/09 01:29:32;;;;;;;7.50;4.20;;;2.10;99.90;;;;;;4995938;28;20030;-83
2022/03/09 01:31:57;;;;;;;6.75;4.15;;;2.10;99.90;;;;;;4996479;28;20373;-83
2022/03/09 01:34:23;;;;;;;6.65;4.18;;;2.10;99.90;;;;;;4982650;28;20048;-83
2022/03/09 01:36:48;;;;;;;6.32;3.70;;;2.10;99.90;;;;;;4996860;28;20121;-84
2022/03/09 01:39:14;;;;;;;6.78;3.90;;;2.00;99.90;;;;;;4998389;28;20030;-82
2022/03/09 01:41:40;;;;;;;6.80;4.47;;;2.00;99.90;;;;;;4999290;28;20095;-83
2022/03/09 01:44:15;;;;;;;7.50;4.03;;;2.00;99.90;;;;;;5001611;28;20038;-83
2022/03/09 01:46:42;;;;;;;7.32;3.90;;;1.90;99.90;;;;;;5004201;28;20115;-83
2022/03/09 01:49:09;;;;;;;6.10;4.10;;;1.90;99.90;;;;;;5004244;28;20460;-83
2022/03/09 01:51:37;;;;;;;6.25;4.30;;;1.90;99.90;;;;;;5002469;28;20065;-84
2022/03/09 01:54:04;;;;;;;6.38;3.88;;;1.90;99.90;;;;;;4997232;28;20042;-83
2022/03/09 01:56:30;;;;;;;6.55;4.15;;;1.90;99.90;;;;;;4998015;28;20072;-84
2022/03/09 01:58:56;;;;;;;7.80;4.40;;;1.80;99.90;;;;;;4998467;28;20053;-83
2022/03/09 02:01:22;;;;;;;8.02;4.65;;;1.80;99.90;;;;;;5001327;28;20041;-84
2022/03/09 02:03:47;;;;;;;8.38;4.18;;;1.70;99.90;;;;;;4982726;28;20034;-83
2022/03/09 02:06:13;;;;;;;7.72;4.50;;;1.80;99.90;;;;;;4997195;28;20041;-84
2022/03/09 02:11:24;;;;;;;8.27;4.63;;;1.70;99.90;;;;;;5004673;28;20050;-84
2022/03/09 02:13:50;;;;;;;6.95;4.43;;;1.70;99.90;;;;;;5006262;28;20038;-83
2022/03/09 02:16:16;;;;;;;8.25;4.70;;;1.70;99.90;;;;;;4998677;28;20121;-83
2022/03/09 02:18:42;;;;;;;7.53;4.72;;;1.60;99.90;;;;;;5001624;28;20038;-83
2022/03/09 02:21:12;;;;;;;9.15;4.50;;;1.60;99.90;;;;;;5002072;28;20400;-83
2022/03/09 02:23:37;;;;;;;6.20;4.32;;;1.60;99.90;;;;;;5000543;28;20053;-83
2022/03/09 02:26:03;;;;;;;9.07;4.65;;;1.60;99.90;;;;;;5001486;28;20038;-83
2022/03/09 02:28:29;;;;;;;7.90;4.70;;;1.60;99.90;;;;;;5004798;28;20041;-84
2022/03/09 02:30:57;;;;;;;8.27;5.40;;;1.50;99.90;;;;;;4995937;28;20495;-83
2022/03/09 02:33:23;;;;;;;7.47;4.90;;;1.50;99.90;;;;;;5002988;28;20408;-83
2022/03/09 02:35:51;;;;;;;7.83;4.67;;;1.50;99.90;;;;;;4998417;28;20042;-83
2022/03/09 02:38:17;;;;;;;7.78;4.85;;;1.40;99.90;;;;;;5002328;28;20496;-83
2022/03/09 02:40:42;;;;;;;8.10;4.83;;;1.40;99.90;;;;;;4995645;28;20046;-83
2022/03/09 02:43:08;;;;;;;8.17;4.87;;;1.40;99.90;;;;;;4997486;28;20041;-83
2022/03/09 02:45:33;;;;;;;9.63;5.10;;;1.40;99.90;;;;;;4996084;28;20045;-83
2022/03/09 02:47:59;;;;;;;8.73;5.10;;;1.40;99.90;;;;;;5000707;28;20034;-84
2022/03/09 02:50:25;;;;;;;10.77;4.77;;;1.40;99.90;;;;;;5001129;28;20546;-83
2022/03/09 02:52:50;;;;;;;8.30;5.33;;;1.30;99.90;;;;;;4998861;28;20042;-83
2022/03/09 02:55:16;;;;;;;7.77;4.87;;;1.30;99.90;;;;;;4996727;28;20038;-83
2022/03/09 02:57:42;;;;;;;7.33;4.63;;;1.30;99.90;;;;;;4991927;28;21793;-83
2022/03/09 03:00:11;;;;;;;13.00;5.63;;;1.30;99.90;;;;;;4993812;28;20031;-84
2022/03/09 03:02:38;;;;;;;7.33;4.77;;;1.30;99.90;;;;;;5005269;28;20036;-83
2022/03/09 03:05:05;;;;;;;8.10;5.07;;;1.20;99.90;;;;;;5004022;28;20053;-83
2022/03/09 03:07:31;;;;;;;8.00;5.20;;;1.20;99.90;;;;;;4993353;28;20042;-83
2022/03/09 03:09:57;;;;;;;10.30;5.43;;;1.20;99.90;;;;;;5002129;28;20091;-83
2022/03/09 03:12:22;;;;;;;10.57;5.10;;;1.20;99.90;;;;;;5001119;28;20050;-83
2022/03/09 03:14:48;;;;;;;10.20;5.10;;;1.20;99.90;;;;;;4997902;28;20117;-83
2022/03/09 03:17:13;;;;;;;9.33;5.03;;;1.10;99.90;;;;;;5003803;28;20474;-83
2022/03/09 03:19:39;;;;;;;7.57;4.77;;;1.10;99.90;;;;;;5000077;28;20117;-83
2022/03/09 03:22:04;;;;;;;10.83;5.40;;;1.10;99.90;;;;;;5000278;28;20037;-84
2022/03/09 03:24:30;;;;;;;11.20;5.50;;;1.10;99.90;;;;;;4999381;28;20074;-83
2022/03/09 03:26:56;;;;;;;8.73;5.20;;;1.00;99.90;;;;;;4983175;28;20038;-83
2022/03/09 03:29:21;;;;;;;9.33;5.30;;;1.00;99.90;;;;;;4998393;28;20810;-83
2022/03/09 03:31:47;;;;;;;8.47;5.07;;;1.00;99.90;;;;;;5001619;28;20038;-83
2022/03/09 03:34:12;;;;;;;7.43;5.20;;;1.00;99.90;;;;;;4990545;28;20512;-83
2022/03/09 03:36:38;;;;;;;8.77;5.37;;;1.00;99.90;;;;;;4985382;28;20044;-83
2022/03/09 03:39:04;;;;;;;8.40;5.17;;;0.90;99.90;;;;;;4994097;28;20133;-83
2022/03/09 03:41:29;;;;;;;7.67;5.40;;;0.90;99.90;;;;;;4996067;28;20030;-83
2022/03/09 03:43:55;;;;;;;10.13;5.73;;;0.80;99.90;;;;;;4992143;28;20045;-83
2022/03/09 03:46:20;;;;;;;7.97;5.37;;;0.80;99.90;;;;;;4998082;28;20420;-82
2022/03/09 03:48:46;;;;;;;8.93;5.47;;;0.70;99.90;;;;;;4998446;28;20410;-83
2022/03/09 03:51:11;;;;;;;8.03;5.10;;;0.70;99.90;;;;;;5000775;28;20097;-83
2022/03/09 03:53:37;;;;;;;9.20;5.53;;;0.70;99.90;;;;;;4999894;28;20449;-83
2022/03/09 03:56:03;;;;;;;8.53;5.17;;;0.60;99.90;;;;;;4996284;28;20452;-83
2022/03/09 03:58:28;;;;;;;8.07;5.50;;;0.60;99.90;;;;;;4980114;28;20519;-83
2022/03/09 04:00:54;;;;;;;8.03;5.27;;;0.60;99.90;;;;;;4995312;28;20046;-83
2022/03/09 04:03:19;;;;;;;9.83;6.30;;;0.60;99.90;;;;;;5002890;28;20061;-83
2022/03/09 04:05:45;;;;;;;10.70;5.90;;;0.60;99.90;;;;;;5002844;28;20046;-83
2022/03/09 04:08:10;;;;;;;8.70;6.03;;;0.60;99.90;;;;;;5000853;28;20050;-83
2022/03/09 04:10:36;;;;;;;8.90;5.97;;;0.60;99.90;;;;;;4993934;28;20050;-83
2022/03/09 04:13:04;;;;;;;9.77;6.00;;;0.60;99.90;;;;;;4992304;28;20408;-83
2022/03/09 04:15:31;;;;;;;9.53;5.50;;;0.70;99.90;;;;;;4996994;28;20188;-83
2022/03/09 04:17:58;;;;;;;9.53;6.23;;;0.70;99.90;;;;;;4982983;28;20076;-83
2022/03/09 04:20:23;;;;;;;8.77;5.27;;;0.70;99.90;;;;;;4997536;28;20441;-83
2022/03/09 04:22:49;;;;;;;9.73;6.10;;;0.70;99.90;;;;;;4999847;28;20185;-83
2022/03/09 04:25:15;;;;;;;8.50;5.53;;;0.70;99.90;;;;;;4984635;28;20038;-82
2022/03/09 04:27:40;;;;;;;10.43;5.90;;;0.60;99.90;;;;;;4984983;28;20508;-83
2022/03/09 04:30:08;;;;;;;9.57;6.40;;;0.60;99.90;;;;;;4982531;28;20042;-83
2022/03/09 04:32:34;;;;;;;9.20;5.70;;;0.60;99.90;;;;;;4998463;28;20158;-82
2022/03/09 04:35:01;;;;;;;10.30;5.83;;;0.70;99.90;;;;;;5005627;28;20039;-83
2022/03/09 04:37:30;;;;;;;8.37;5.63;;;0.60;99.90;;;;;;4979684;28;20052;-83
2022/03/09 04:39:57;;;;;;;13.30;6.03;;;0.60;99.90;;;;;;5009194;28;20042;-83
2022/03/09 04:42:22;;;;;;;8.43;5.73;;;0.60;99.90;;;;;;4999252;28;20412;-83
2022/03/09 04:44:48;;;;;;;10.73;6.20;;;0.50;99.90;;;;;;5003853;28;20100;-83
2022/03/09 04:47:14;;;;;;;9.60;6.07;;;0.50;99.90;;;;;;5002724;28;20096;-83
2022/03/09 04:49:39;;;;;;;10.07;6.30;;;0.40;99.90;;;;;;4989998;28;20481;-83
2022/03/09 04:52:05;;;;;;;10.43;6.83;;;0.40;99.90;;;;;;4998902;28;20048;-82
2022/03/09 04:54:32;;;;;;;10.23;6.23;;;0.30;99.90;;;;;;5002013;28;20038;-83
2022/03/09 04:56:57;;;;;;;10.63;5.90;;;0.30;99.90;;;;;;4998199;28;20141;-82
2022/03/09 04:59:23;;;;;;;10.93;6.23;;;0.30;99.90;;;;;;5000215;28;20551;-83
2022/03/09 05:01:48;;;;;;;8.77;5.53;;;0.30;99.90;;;;;;4986542;28;20026;-82
2022/03/09 05:04:14;;;;;;;11.00;6.00;;;0.20;99.90;;;;;;4985070;28;20492;-83
2022/03/09 05:06:39;;;;;;;9.80;5.93;;;0.30;99.90;;;;;;4999668;28;20033;-82
2022/03/09 05:09:05;;;;;;;10.70;7.00;;;0.20;99.90;;;;;;5002846;28;20046;-83
2022/03/09 05:11:30;;;;;;;8.57;5.37;;;0.20;99.90;;;;;;5001787;28;20042;-83
2022/03/09 05:13:56;;;;;;;10.37;6.13;;;0.20;99.90;;;;;;5001992;28;20038;-83
2022/03/09 05:16:22;;;;;;;10.67;6.07;;;0.10;99.90;;;;;;4997092;28;20518;-83
2022/03/09 05:18:48;;;;;;;9.57;6.50;;;0.10;99.90;;;;;;4986623;28;20038;-83
2022/03/09 05:21:14;;;;;;;9.77;6.43;;;0.00;99.90;;;;;;4984039;28;20034;-83
2022/03/09 05:23:39;;;;;;;9.30;5.87;;;0.00;99.90;;;;;;5002587;28;20038;-83
2022/03/09 05:26:05;;;;;;;13.30;7.20;;;-0.10;99.90;;;;;;5003705;28;20140;-82
2022/03/09 05:28:30;;;;;;;9.93;5.97;;;-0.10;99.90;;;;;;5000346;28;20109;-83
2022/03/09 05:30:56;;;;;;;9.43;5.90;;;-0.10;99.90;;;;;;5000631;28;20038;-83
2022/03/09 05:33:21;;;;;;;10.83;6.07;;;-0.20;99.90;;;;;;5011323;28;20400;-82
2022/03/09 05:35:47;;;;;;;10.93;6.73;;;-0.30;99.90;;;;;;4998672;28;20120;-82
2022/03/09 05:38:13;;;;;;;11.30;6.10;;;-0.30;99.90;;;;;;4994418;28;20039;-83
2022/03/09 05:40:38;;;;;;;9.90;6.20;;;-0.30;99.90;;;;;;4978126;28;20045;-83
2022/03/09 05:43:04;;;;;;;10.33;6.30;;;-0.20;99.90;;;;;;4999288;28;20046;-83
2022/03/09 05:45:29;;;;;;;11.63;5.87;;;-0.30;99.90;;;;;;4984791;28;20492;-83
2022/03/09 05:47:55;;;;;;;10.10;5.90;;;-0.20;99.90;;;;;;4998615;28;20056;-83
2022/03/09 05:50:21;;;;;;;9.53;6.30;;;-0.20;99.90;;;;;;5002192;28;20049;-83
2022/03/09 05:52:47;;;;;;;9.77;6.47;;;-0.20;99.90;;;;;;4999958;28;20107;-83
2022/03/09 05:55:12;;;;;;;11.77;6.57;;;-0.30;99.90;;;;;;4995885;28;20050;-83
2022/03/09 05:57:38;;;;;;;8.97;6.07;;;-0.30;99.90;;;;;;4983929;28;20025;-83
2022/03/09 06:00:06;;;;;;;11.27;6.63;;;-0.30;99.90;;;;;;4994666;28;20098;-83
2022/03/09 06:02:32;;;;;;;10.43;6.40;;;-0.20;99.90;;;;;;4997553;28;20041;-83
2022/03/09 06:04:57;;;;;;;13.70;6.63;;;-0.20;99.90;;;;;;5001848;28;20042;-83
2022/03/09 06:07:23;;;;;;;9.67;6.23;;;-0.20;99.90;;;;;;5003202;28;20037;-83
2022/03/09 06:09:49;;;;;;;11.90;6.67;;;-0.20;99.90;;;;;;4997450;28;20561;-84
2022/03/09 06:12:15;;;;;;;10.97;6.60;;;-0.20;99.90;;;;;;5019942;28;20037;-83
2022/03/09 06:14:41;;;;;;;12.40;6.73;;;-0.20;99.90;;;;;;5024292;28;20093;-83
2022/03/09 06:17:06;;;;;;;10.57;6.37;;;-0.30;99.90;;;;;;5005855;28;20073;-83
2022/03/09 06:19:32;;;;;;;10.17;6.23;;;-0.20;99.90;;;;;;4998867;28;20034;-83
2022/03/09 06:21:58;;;;;;;9.70;5.80;;;-0.20;99.90;;;;;;4995553;28;20030;-83
2022/03/09 06:24:23;;;;;;;12.20;6.30;;;-0.20;99.90;;;;;;4988233;28;20412;-83
2022/03/09 06:26:49;;;;;;;11.07;6.57;;;-0.20;99.90;;;;;;5002224;28;20124;-83
2022/03/09 06:29:15;;;;;;;8.47;5.97;;;-0.10;99.90;;;;;;4998997;28;20355;-82
2022/03/09 06:31:42;;;;;;;13.27;7.13;;;-0.10;99.90;;;;;;5002563;28;20060;-84
2022/03/09 06:34:08;;;;;;;11.43;6.60;;;-0.10;99.90;;;;;;4998143;28;20057;-83
2022/03/09 06:36:33;;;;;;;9.83;5.70;;;-0.10;99.90;;;;;;5007823;28;20551;-83
2022/03/09 06:38:59;;;;;;;11.10;6.63;;;0.00;99.90;;;;;;5001122;28;20488;-83
2022/03/09 06:41:25;;;;;;;11.10;6.70;;;0.00;99.90;;;;;;5002445;28;20093;-83
2022/03/09 06:43:50;;;;;;;12.60;6.40;;;0.00;99.90;;;;;;5003101;28;20042;-84
2022/03/09 06:46:16;;;;;;;10.00;6.07;;;0.10;99.90;;;;;;5015188;28;20040;-83
2022/03/09 06:48:42;;;;;;;9.83;5.77;;;0.20;99.90;;;;;;5011640;28;20045;-83
2022/03/09 06:51:07;;;;;;;10.63;6.60;;;0.20;99.90;;;;;;5011571;28;20557;-83
2022/03/09 06:53:33;;;;;;;9.67;6.27;;;0.30;99.90;;;;;;5011484;28;20396;-83
2022/03/09 06:55:58;;;;;;;10.13;6.20;;;0.40;99.90;;;;;;5012433;28;20046;-83
2022/03/09 06:58:24;;;;;;;10.87;6.27;;;0.40;99.90;;;;;;4995149;28;20042;-83
2022/03/09 07:00:50;;;;;;;10.07;6.37;;;0.50;99.90;;;;;;5010960;28;20045;-83
2022/03/09 07:03:16;;;;;;;10.87;6.17;;;0.60;99.90;;;;;;5010526;28;20454;-82
2022/03/09 07:05:41;;;;;;;12.33;7.13;;;0.70;99.90;;;;;;5010738;28;20034;-82
2022/03/09 07:08:07;;;;;;;10.90;6.47;;;0.70;99.90;;;;;;5011237;28;20095;-82
2022/03/09 07:10:33;;;;;;;12.50;6.93;;;0.80;99.90;;;;;;5011336;28;20116;-82
2022/03/09 07:12:58;;;;;;;12.17;6.57;;;0.90;99.90;;;;;;5011275;28;20483;-83
2022/03/09 07:15:24;;;;;;;11.87;6.73;;;1.00;99.90;;;;;;5010779;28;20125;-82
2022/03/09 07:17:49;;;;;;;11.27;7.47;;;1.10;99.90;;;;;;5010472;28;20096;-83
2022/03/09 07:20:17;;;;;;;10.43;6.53;;;1.10;99.90;;;;;;5010418;28;20041;-83
2022/03/09 07:22:44;;;;;;;10.10;6.50;;;1.30;99.90;;;;;;5010594;28;20041;-83
2022/03/09 07:25:14;;;;;;;10.07;6.27;;;1.30;99.90;;;;;;4998178;28;20045;-83
2022/03/09 07:27:39;;;;;;;12.60;6.60;;;1.50;99.90;;;;;;5016557;28;20651;-83
2022/03/09 07:30:07;;;;;;;10.83;6.73;;;1.60;99.90;;;;;;4990390;28;20137;-83
2022/03/09 07:32:33;;;;;;;11.03;6.50;;;1.70;99.90;;;;;;4979857;28;20034;-83
2022/03/09 07:34:59;;;;;;;10.57;6.40;;;1.80;99.90;;;;;;4991018;28;20093;-83
2022/03/09 07:37:24;;;;;;;11.60;6.87;;;1.90;99.90;;;;;;4990136;28;20125;-82
2022/03/09 07:39:50;;;;;;;11.87;6.90;;;2.00;99.90;;;;;;5011637;28;20042;-83
2022/03/09 07:42:16;;;;;;;11.17;6.97;;;2.10;99.90;;;;;;4995051;28;20097;-83
2022/03/09 07:44:41;;;;;;;13.03;6.93;;;2.20;99.90;;;;;;4998663;28;20029;-83
2022/03/09 07:47:07;;;;;;;12.27;7.20;;;2.30;99.90;;;;;;4990734;28;20041;-83
2022/03/09 07:49:33;;;;;;;11.90;6.50;;;2.50;99.90;;;;;;5009915;28;20069;-83
2022/03/09 07:52:00;;;;;;;12.30;6.50;;;2.60;99.90;;;;;;5004190;28;20034;-83
2022/03/09 07:54:26;;;;;;;10.53;6.73;;;2.80;99.90;;;;;;4991324;28;20092;-84
2022/03/09 07:56:52;;;;;;;12.33;6.73;;;2.80;99.90;;;;;;4993630;28;20030;-82
2022/03/09 07:59:17;;;;;;;10.87;6.80;;;3.00;99.90;;;;;;5003359;28;20108;-83
2022/03/09 08:01:44;;;;;;;12.43;7.13;;;3.10;99.90;;;;;;5004356;28;20042;-84
2022/03/09 08:04:10;;;;;;;10.07;6.93;;;3.20;99.90;;;;;;5003437;28;20039;-83
2022/03/09 08:06:37;;;;;;;10.40;7.00;;;3.30;99.90;;;;;;5006165;28;20419;-83
2022/03/09 08:09:03;;;;;;;13.20;7.03;;;3.40;99.90;;;;;;4989479;28;20052;-83
2022/03/09 08:11:30;;;;;;;11.30;6.80;;;3.60;99.90;;;;;;5010028;28;20120;-84
2022/03/09 08:13:56;;;;;;;13.67;7.47;;;3.70;99.90;;;;;;5011935;28;20495;-83
2022/03/09 08:16:22;;;;;;;12.70;6.87;;;3.80;99.90;;;;;;5007927;28;20047;-84
2022/03/09 08:18:47;;;;;;;9.93;6.72;;;3.90;99.90;;;;;;5008106;28;20069;-84
2022/03/09 08:21:13;;;;;;;10.02;6.30;;;4.10;99.90;;;;;;5011048;28;20123;-83
2022/03/09 08:23:38;;;;;;;10.85;6.82;;;4.20;99.90;;;;;;5003887;28;20403;-83
2022/03/09 08:26:04;;;;;;;11.98;7.30;;;4.30;99.90;;;;;;4990081;28;20042;-83
2022/03/09 08:28:29;;;;;;;10.05;6.90;;;4.40;99.90;;;;;;4994151;28;20042;-83
2022/03/09 08:30:55;;;;;;;11.35;7.10;;;4.50;99.90;;;;;;4994034;28;20412;-82
2022/03/09 08:33:21;;;;;;;12.95;7.72;;;4.60;99.90;;;;;;4995575;28;20038;-84
2022/03/09 08:35:47;;;;;;;10.95;7.30;;;4.80;99.90;;;;;;4990195;28;20695;-83
2022/03/09 08:38:12;;;;;;;11.05;7.00;;;4.90;99.90;;;;;;5023138;28;20408;-83
2022/03/09 08:40:38;;;;;;;11.65;7.00;;;5.00;99.90;;;;;;4990783;28;20049;-83
2022/03/09 08:43:03;;;;;;;8.23;6.32;;;5.20;99.90;;;;;;4999490;28;20034;-83
2022/03/09 08:45:29;;;;;;;10.63;7.25;;;5.30;99.90;;;;;;4999340;28;20588;-83
2022/03/09 08:47:55;;;;;;;9.52;6.65;;;5.40;99.90;;;;;;5006878;28;20532;-83
2022/03/09 08:50:20;;;;;;;11.43;6.82;;;5.50;99.90;;;;;;4988607;28;20419;-83
2022/03/09 08:52:46;;;;;;;10.90;6.95;;;5.60;99.90;;;;;;4994516;28;20074;-82
2022/03/09 08:55:11;;;;;;;9.50;6.45;;;5.70;99.90;;;;;;5025207;28;20065;-83
2022/03/09 08:57:37;;;;;;;9.80;6.45;;;5.70;99.90;;;;;;5022093;28;20056;-83
2022/03/09 09:00:04;;;;;;;13.68;7.18;;;5.90;99.90;;;;;;5029295;28;20106;-83
2022/03/09 09:02:30;;;;;;;10.45;7.07;;;6.00;99.90;;;;;;5021395;28;20045;-83
2022/03/09 09:04:56;;;;;;;10.95;6.68;;;6.20;99.90;;;;;;4991080;28;20033;-83
2022/03/09 09:07:23;;;;;;;11.02;7.07;;;6.30;99.90;;;;;;5008688;28;20042;-82
2022/03/09 09:09:49;;;;;;;11.65;6.53;;;6.30;99.90;;;;;;4991677;28;20046;-83
2022/03/09 09:12:15;;;;;;;11.57;7.15;;;6.20;99.90;;;;;;5013381;28;20041;-83
2022/03/09 09:14:41;;;;;;;9.95;6.47;;;6.30;99.90;;;;;;5017316;28;20037;-83
2022/03/09 09:17:07;;;;;;;11.60;6.90;;;6.40;99.90;;;;;;5014080;28;20427;-83
2022/03/09 09:19:33;;;;;;;9.15;6.22;;;6.50;99.90;;;;;;4996841;28;20121;-83
2022/03/09 09:21:59;;;;;;;9.48;6.65;;;6.60;99.90;;;;;;5011896;28;20061;-83
2022/03/09 09:24:25;;;;;;;10.93;7.20;;;6.70;99.90;;;;;;4978276;28;20475;-83
2022/03/09 09:26:51;;;;;;;13.98;6.75;;;6.90;99.90;;;;;;4977228;28;20043;-84
2022/03/09 09:29:16;;;;;;;14.88;7.22;;;7.00;99.90;;;;;;4998254;28;20042;-83
2022/03/09 09:31:42;;;;;;;10.48;7.05;;;7.10;99.90;;;;;;5006147;28;20128;-83
2022/03/09 09:34:08;;;;;;;12.10;6.85;;;7.20;99.90;;;;;;4996590;28;20511;-82
2022/03/09 09:36:34;;;;;;;11.52;7.32;;;7.20;99.90;;;;;;5012299;28;20462;-83
2022/03/09 09:39:00;;;;;;;10.63;6.65;;;7.30;99.90;;;;;;5013627;28;20034;-83
2022/03/09 09:41:27;;;;;;;12.02;6.50;;;7.40;99.90;;;;;;5006876;28;20508;-83
2022/03/09 09:43:53;;;;;;;9.95;6.55;;;7.40;99.90;;;;;;5025709;28;20496;-83
2022/03/09 09:46:19;;;;;;;11.00;6.60;;;7.50;99.90;;;;;;4999028;28;20045;-83
2022/03/09 09:48:46;;;;;;;10.32;6.55;;;7.60;99.90;;;;;;5010243;28;20360;-84
2022/03/09 09:51:12;;;;;;;13.10;7.55;;;7.80;99.90;;;;;;5012722;28;20038;-83
2022/03/09 09:53:45;;;;;;;11.07;7.03;;;7.90;99.90;;;;;;5023040;28;20046;-83
2022/03/09 09:56:15;;;;;;;14.27;6.38;;;7.90;99.90;;;;;;4999497;28;20038;-83
2022/03/09 09:58:43;;;;;;;12.00;6.97;;;7.90;99.90;;;;;;5020410;28;20458;-83
2022/03/09 10:01:10;;;;;;;9.75;6.57;;;8.00;99.90;;;;;;4984409;28;20146;-83
2022/03/09 10:03:36;;;;;;;9.95;6.75;;;8.10;99.90;;;;;;5015270;28;20038;-84
2022/03/09 10:06:02;;;;;;;10.40;6.63;;;8.20;99.90;;;;;;5005299;28;20092;-84
2022/03/09 10:08:27;;;;;;;9.77;6.60;;;8.20;99.90;;;;;;4999330;28;20045;-83
2022/03/09 10:10:59;;;;;;;10.32;6.97;;;8.30;99.90;;;;;;5023874;28;20053;-83
2022/03/09 10:13:27;;;;;;;10.95;7.10;;;8.40;99.90;;;;;;5010635;28;20068;-83
2022/03/09 10:16:16;;;;;;;10.10;6.78;;;8.50;99.90;;;;;;5005364;28;20042;-83
2022/03/09 10:18:55;;;;;;;10.60;6.85;;;8.50;99.90;;;;;;5008243;28;20050;-84
2022/03/09 10:21:25;;;;;;;10.10;7.68;;;8.60;98.60;;;;;;4996874;28;20052;-83
2022/03/09 10:23:51;;;;;;;11.50;7.10;;;8.70;99.90;;;;;;5005196;28;20044;-83
2022/03/09 10:26:17;;;;;;;9.45;6.75;;;8.80;99.90;;;;;;5003110;28;20038;-83
2022/03/09 10:28:58;;;;;;;11.05;7.10;;;8.80;99.90;;;;;;5012646;28;20049;-83
2022/03/09 10:31:45;;;;;;;9.80;6.70;;;8.90;99.50;;;;;;5016047;28;20072;-83
2022/03/09 10:34:12;;;;;;;10.65;6.70;;;9.00;99.50;;;;;;4988461;28;20070;-84
2022/03/09 10:36:59;;;;;;;10.35;7.13;;;9.10;99.50;;;;;;4986800;28;20409;-84
2022/03/09 10:39:30;;;;;;;10.82;7.20;;;9.20;97.60;;;;;;5012048;28;20412;-83
2022/03/09 10:41:58;;;;;;;10.68;6.90;;;9.30;99.00;;;;;;5013704;28;20060;-85
2022/03/09 10:44:43;;;;;;;11.80;7.00;;;9.40;97.80;;;;;;5016713;28;20046;-84
2022/03/09 10:47:09;;;;;;;9.85;6.70;;;9.50;97.80;;;;;;4988675;28;20034;-84
2022/03/09 10:49:35;;;;;;;9.93;6.97;;;9.50;97.20;;;;;;5009342;28;20407;-84
2022/03/09 10:52:01;;;;;;;10.75;7.65;;;9.60;96.70;;;;;;5001414;28;20060;-83
2022/03/09 10:54:28;;;;;;;10.77;7.20;;;9.60;96.70;;;;;;5024497;28;20041;-84
2022/03/09 10:57:08;;;;;;;10.32;7.50;;;9.60;96.90;;;;;;5014151;28;20141;-84
2022/03/09 10:59:53;;;;;;;12.38;7.45;;;9.80;96.00;;;;;;5019931;28;20048;-84
2022/03/09 11:02:22;;;;;;;12.88;7.10;;;10.00;96.80;;;;;;5005282;28;20120;-84
2022/03/09 11:05:08;;;;;;;11.98;7.38;;;10.20;97.00;;;;;;5003656;28;20053;-84
2022/03/09 11:07:38;;;;;;;9.35;7.07;;;10.30;96.40;;;;;;5003933;28;20095;-84
2022/03/09 11:10:09;;;;;;;10.10;7.20;;;10.40;94.60;;;;;;5021715;28;20112;-84
2022/03/09 11:12:37;;;;;;;11.65;7.75;;;10.50;96.60;;;;;;5014186;28;20065;-84
2022/03/09 11:15:03;;;;;;;12.18;7.32;;;10.50;96.50;;;;;;4988892;28;20030;-84
2022/03/09 11:17:29;;;;;;;9.57;7.00;;;10.60;96.40;;;;;;5000870;28;20045;-85
2022/03/09 11:19:54;;;;;;;11.55;7.30;;;10.60;95.80;;;;;;4996046;28;20034;-84
2022/03/09 11:22:20;;;;;;;13.18;7.45;;;10.60;95.10;;;;;;5003671;28;20690;-84
2022/03/09 11:24:46;;;;;;;9.18;6.95;;;10.60;95.10;;;;;;5008606;28;20045;-84
2022/03/09 11:27:13;;;;;;;9.98;7.18;;;10.70;95.00;;;;;;4995802;28;20038;-84
2022/03/09 11:29:40;;;;;;;12.63;7.70;;;10.80;93.10;;;;;;5010593;28;20045;-84
2022/03/09 11:32:08;;;;;;;10.32;7.40;;;11.00;94.80;;;;;;4995346;28;20041;-84
2022/03/09 11:34:46;;;;;;;12.13;7.05;;;11.00;94.70;;;;;;5010217;28;20552;-84
2022/03/09 11:37:17;;;;;;;11.18;7.30;;;11.20;94.70;;;;;;5005635;28;20037;-84
2022/03/09 11:40:10;;;;;;;10.40;7.82;;;11.30;94.70;;;;;;5010280;28;20375;-84
2022/03/09 11:42:41;;;;;;;11.88;7.53;;;11.50;94.60;;;;;;4998417;28;20053;-84
2022/03/09 11:45:29;;;;;;;11.43;7.68;;;11.50;93.80;;;;;;4994030;28;20112;-85
2022/03/09 11:47:57;;;;;;;10.52;6.85;;;11.60;91.80;;;;;;5010380;28;20133;-85
2022/03/09 11:50:23;;;;;;;9.90;7.20;;;11.60;90.40;;;;;;4996118;28;20038;-85
2022/03/09 11:53:07;;;;;;;9.38;7.13;;;11.70;92.60;;;;;;4993494;28;20575;-85
2022/03/09 11:55:34;;;;;;;10.15;7.22;;;11.80;91.30;;;;;;5002114;28;20034;-84
2022/03/09 11:58:05;;;;;;;11.18;7.43;;;12.00;91.70;;;;;;5010114;28;20447;-85
2022/03/09 12:00:31;;;;;;;10.27;7.20;;;12.00;86.30;;;;;;5010204;28;20041;-85
2022/03/09 12:02:56;;;;;;;15.20;7.45;;;12.20;90.60;;;;;;4993455;28;20038;-84
2022/03/09 12:05:28;;;;;;;11.50;7.68;;;12.30;90.50;;;;;;5010253;28;20045;-85
2022/03/09 12:08:06;;;;;;;10.23;7.18;;;12.40;90.10;;;;;;4999863;28;20078;-85
2022/03/09 12:10:41;;;;;;;10.65;6.97;;;12.60;90.10;;;;;;5019826;28;20161;-85
2022/03/09 12:13:13;;;;;;;10.77;7.18;;;12.60;79.80;;;;;;5009975;28;20068;-85
2022/03/09 12:16:12;;;;;;;9.93;7.25;;;12.70;86.50;;;;;;5009454;28;20081;-84
2022/03/09 12:18:46;;;;;;;11.32;7.13;;;13.00;86.80;;;;;;4993499;28;20030;-84
2022/03/09 12:21:14;;;;;;;10.38;7.63;;;13.10;86.50;;;;;;4993525;28;20045;-85
2022/03/09 12:24:02;;;;;;;16.98;7.28;;;13.30;86.10;;;;;;5010356;28;20042;-85
2022/03/09 12:26:51;;;;;;;10.18;7.40;;;13.30;79.10;;;;;;4988998;28;20224;-85
2022/03/09 12:29:28;;;;;;;11.13;7.40;;;13.50;80.60;;;;;;5011191;28;20042;-85
2022/03/09 12:32:14;;;;;;;10.10;7.20;;;13.70;78.00;;;;;;5016540;28;20563;-85
2022/03/09 12:34:42;;;;;;;10.25;7.40;;;13.80;75.20;;;;;;4994841;28;20447;-86
2022/03/09 12:37:11;;;;;;;12.23;8.07;;;13.80;79.90;;;;;;5006479;28;20399;-85
2022/03/09 12:39:37;;;;;;;11.93;7.57;;;14.00;79.90;;;;;;5009089;28;20122;-85
2022/03/09 12:42:04;;;;;;;10.27;7.47;;;13.90;78.50;;;;;;5011586;28;20124;-85
2022/03/09 12:44:32;;;;;;;11.38;7.30;;;14.10;78.50;;;;;;5006027;28;20042;-85
2022/03/09 12:47:03;;;;;;;11.27;7.78;;;14.20;77.10;;;;;;4999695;28;20518;-86
2022/03/09 12:49:35;;;;;;;9.98;7.68;;;14.30;73.70;;;;;;5020503;28;20030;-85
2022/03/09 12:52:10;;;;;;;9.57;7.78;;;14.20;70.70;;;;;;5005896;28;20057;-85